sensor_id;sensor_type;location;lat;lon;timestamp;pressure;altitude;pressure_sealevel;temperature;humidity
7614;BME280;3848;42.016;23.098;2023-04-01T00:01:27;96309.25;;;13.66;90.97
7614;BME280;3848;42.016;23.098;2023-04-01T00:03:54;96290.03;;;13.56;90.04
7614;BME280;3848;42.016;23.098;2023-04-01T00:06:22;96305.84;;;13.65;89.81
7614;BME280;3848;42.016;23.098;2023-04-01T00:08:48;96310.97;;;13.65;89.10
7614;BME280;3848;42.016;23.098;2023-04-01T00:11:16;96301.97;;;13.55;90.19
7614;BME280;3848;42.016;23.098;2023-04-01T00:13:43;96314.56;;;13.60;89.24
7614;BME280;3848;42.016;23.098;2023-04-01T00:16:11;96317.16;;;13.58;90.05
7614;BME280;3848;42.016;23.098;2023-04-01T00:18:38;96312.94;;;13.57;90.51
7614;BME280;3848;42.016;23.098;2023-04-01T00:21:06;96301.97;;;13.55;90.72
7614;BME280;3848;42.016;23.098;2023-04-01T00:23:33;96291.09;;;13.49;92.30
7614;BME280;3848;42.016;23.098;2023-04-01T00:26:00;96300.13;;;13.59;91.55
7614;BME280;3848;42.016;23.098;2023-04-01T00:28:28;96300.25;;;13.56;93.14
7614;BME280;3848;42.016;23.098;2023-04-01T00:30:55;96293.53;;;13.52;93.93
7614;BME280;3848;42.016;23.098;2023-04-01T00:33:23;96280.16;;;13.45;94.54
7614;BME280;3848;42.016;23.098;2023-04-01T00:35:50;96299.19;;;13.61;95.87
7614;BME280;3848;42.016;23.098;2023-04-01T00:38:16;96306.25;;;13.53;98.21
7614;BME280;3848;42.016;23.098;2023-04-01T00:40:45;96302.91;;;13.51;98.15
7614;BME280;3848;42.016;23.098;2023-04-01T00:43:14;96313.97;;;13.52;96.99
7614;BME280;3848;42.016;23.098;2023-04-01T00:45:44;96301.47;;;13.44;100.00
7614;BME280;3848;42.016;23.098;2023-04-01T00:48:14;96297.31;;;13.41;100.00
7614;BME280;3848;42.016;23.098;2023-04-01T00:50:46;96299.69;;;13.46;99.66
7614;BME280;3848;42.016;23.098;2023-04-01T00:53:16;96277.94;;;13.36;98.83
7614;BME280;3848;42.016;23.098;2023-04-01T00:55:49;96278.56;;;13.42;99.03
7614;BME280;3848;42.016;23.098;2023-04-01T00:58:18;96284.28;;;13.49;99.11
7614;BME280;3848;42.016;23.098;2023-04-01T01:00:49;96286.78;;;13.51;97.85
7614;BME280;3848;42.016;23.098;2023-04-01T01:03:17;96263.34;;;13.39;97.72
7614;BME280;3848;42.016;23.098;2023-04-01T01:05:57;96278.22;;;13.52;97.75
7614;BME280;3848;42.016;23.098;2023-04-01T01:08:39;96248.88;;;13.40;97.53
7614;BME280;3848;42.016;23.098;2023-04-01T01:11:14;96255.59;;;13.42;97.18
7614;BME280;3848;42.016;23.098;2023-04-01T01:13:47;96272.28;;;13.51;95.16
7614;BME280;3848;42.016;23.098;2023-04-01T01:16:22;96265.72;;;13.44;97.68
7614;BME280;3848;42.016;23.098;2023-04-01T01:18:54;96266.06;;;13.35;97.71
7614;BME280;3848;42.016;23.098;2023-04-01T01:21:54;96265.22;;;13.34;97.10
7614;BME280;3848;42.016;23.098;2023-04-01T01:24:41;96256.88;;;13.29;99.33
7614;BME280;3848;42.016;23.098;2023-04-01T01:27:11;96251.03;;;13.26;100.00
7614;BME280;3848;42.016;23.098;2023-04-01T01:29:59;96251.13;;;13.23;100.00
7614;BME280;3848;42.016;23.098;2023-04-01T01:32:59;96259.78;;;13.19;100.00
7614;BME280;3848;42.016;23.098;2023-04-01T01:35:33;96259.03;;;13.15;100.00
7614;BME280;3848;42.016;23.098;2023-04-01T01:38:03;96254.91;;;13.09;100.00
7614;BME280;3848;42.016;23.098;2023-04-01T01:40:33;96260.84;;;13.10;100.00
7614;BME280;3848;42.016;23.098;2023-04-01T01:43:11;96242.72;;;12.93;100.00
7614;BME280;3848;42.016;23.098;2023-04-01T01:45:43;96260.53;;;12.94;100.00
7614;BME280;3848;42.016;23.098;2023-04-01T01:48:11;96249.63;;;12.89;100.00
7614;BME280;3848;42.016;23.098;2023-04-01T01:50:41;96253.16;;;12.85;100.00
7614;BME280;3848;42.016;23.098;2023-04-01T01:53:10;96242.31;;;12.78;100.00
7614;BME280;3848;42.016;23.098;2023-04-01T01:55:39;96267.53;;;12.88;100.00
7614;BME280;3848;42.016;23.098;2023-04-01T01:58:10;96250.72;;;12.82;100.00
7614;BME280;3848;42.016;23.098;2023-04-01T02:00:39;96254.09;;;12.82;100.00
7614;BME280;3848;42.016;23.098;2023-04-01T02:03:07;96250.03;;;12.77;100.00
7614;BME280;3848;42.016;23.098;2023-04-01T02:05:35;96243.22;;;12.77;100.00
7614;BME280;3848;42.016;23.098;2023-04-01T02:08:07;96231.34;;;12.76;100.00
7614;BME280;3848;42.016;23.098;2023-04-01T02:10:37;96235.72;;;12.73;100.00
7614;BME280;3848;42.016;23.098;2023-04-01T02:13:12;96241.03;;;12.65;100.00
7614;BME280;3848;42.016;23.098;2023-04-01T02:15:45;96225.88;;;12.61;100.00
7614;BME280;3848;42.016;23.098;2023-04-01T02:18:13;96180.81;;;12.35;100.00
7614;BME280;3848;42.016;23.098;2023-04-01T02:20:42;96226.81;;;12.58;100.00
7614;BME280;3848;42.016;23.098;2023-04-01T02:23:12;96211.06;;;12.45;100.00
7614;BME280;3848;42.016;23.098;2023-04-01T02:25:41;96224.31;;;12.57;100.00
7614;BME280;3848;42.016;23.098;2023-04-01T02:28:10;96212.41;;;12.57;100.00
7614;BME280;3848;42.016;23.098;2023-04-01T02:30:39;96211.56;;;12.57;100.00
7614;BME280;3848;42.016;23.098;2023-04-01T02:33:07;96203.19;;;12.53;100.00
7614;BME280;3848;42.016;23.098;2023-04-01T02:35:36;96202.31;;;12.54;100.00
7614;BME280;3848;42.016;23.098;2023-04-01T02:38:04;96193.94;;;12.49;100.00
7614;BME280;3848;42.016;23.098;2023-04-01T02:40:43;96199.75;;;12.54;100.00
7614;BME280;3848;42.016;23.098;2023-04-01T02:43:10;96211.00;;;12.47;100.00
7614;BME280;3848;42.016;23.098;2023-04-01T02:45:37;96210.50;;;12.36;100.00
7614;BME280;3848;42.016;23.098;2023-04-01T02:48:04;96218.00;;;12.40;100.00
7614;BME280;3848;42.016;23.098;2023-04-01T02:50:31;96223.94;;;12.41;100.00
7614;BME280;3848;42.016;23.098;2023-04-01T02:52:58;96223.84;;;12.44;100.00
7614;BME280;3848;42.016;23.098;2023-04-01T02:55:25;96222.84;;;12.49;100.00
7614;BME280;3848;42.016;23.098;2023-04-01T02:57:53;96223.69;;;12.50;100.00
7614;BME280;3848;42.016;23.098;2023-04-01T03:00:20;96214.38;;;12.47;100.00
7614;BME280;3848;42.016;23.098;2023-04-01T03:02:46;96208.50;;;12.45;100.00
7614;BME280;3848;42.016;23.098;2023-04-01T03:05:13;96221.13;;;12.50;100.00
7614;BME280;3848;42.016;23.098;2023-04-01T03:07:40;96191.78;;;12.37;100.00
7614;BME280;3848;42.016;23.098;2023-04-01T03:10:08;96207.63;;;12.46;100.00
7614;BME280;3848;42.016;23.098;2023-04-01T03:12:35;96209.28;;;12.47;100.00
7614;BME280;3848;42.016;23.098;2023-04-01T03:15:04;96208.56;;;12.44;100.00
7614;BME280;3848;42.016;23.098;2023-04-01T03:17:31;96201.94;;;12.38;100.00
7614;BME280;3848;42.016;23.098;2023-04-01T03:19:58;96196.78;;;12.40;100.00
7614;BME280;3848;42.016;23.098;2023-04-01T03:22:24;96198.47;;;12.41;100.00
7614;BME280;3848;42.016;23.098;2023-04-01T03:24:51;96186.69;;;12.37;100.00
7614;BME280;3848;42.016;23.098;2023-04-01T03:27:18;96182.59;;;12.33;100.00
7614;BME280;3848;42.016;23.098;2023-04-01T03:29:45;96169.94;;;12.30;100.00
7614;BME280;3848;42.016;23.098;2023-04-01T03:32:13;96173.38;;;12.29;100.00
7614;BME280;3848;42.016;23.098;2023-04-01T03:34:40;96182.63;;;12.31;100.00
7614;BME280;3848;42.016;23.098;2023-04-01T03:37:07;96150.84;;;12.15;100.00
7614;BME280;3848;42.016;23.098;2023-04-01T03:39:33;96170.69;;;12.33;100.00
7614;BME280;3848;42.016;23.098;2023-04-01T03:42:00;96174.84;;;12.36;100.00
7614;BME280;3848;42.016;23.098;2023-04-01T03:44:30;96175.69;;;12.36;100.00
7614;BME280;3848;42.016;23.098;2023-04-01T03:46:57;96173.13;;;12.36;100.00
7614;BME280;3848;42.016;23.098;2023-04-01T03:49:26;96174.84;;;12.36;100.00
7614;BME280;3848;42.016;23.098;2023-04-01T03:51:53;96175.72;;;12.35;100.00
7614;BME280;3848;42.016;23.098;2023-04-01T03:54:20;96155.56;;;12.27;100.00
7614;BME280;3848;42.016;23.098;2023-04-01T03:56:47;96154.69;;;12.28;100.00
7614;BME280;3848;42.016;23.098;2023-04-01T03:59:14;96158.09;;;12.29;100.00
7614;BME280;3848;42.016;23.098;2023-04-01T04:01:40;96160.59;;;12.30;100.00
7614;BME280;3848;42.016;23.098;2023-04-01T04:04:07;96149.47;;;12.33;100.00
7614;BME280;3848;42.016;23.098;2023-04-01T04:06:38;96145.22;;;12.33;100.00
7614;BME280;3848;42.016;23.098;2023-04-01T04:09:05;96143.44;;;12.35;100.00
7614;BME280;3848;42.016;23.098;2023-04-01T04:11:32;96132.53;;;12.32;100.00
7614;BME280;3848;42.016;23.098;2023-04-01T04:13:59;96133.31;;;12.34;100.00
7614;BME280;3848;42.016;23.098;2023-04-01T04:16:26;96124.09;;;12.30;100.00
7614;BME280;3848;42.016;23.098;2023-04-01T04:18:52;96133.41;;;12.31;100.00
7614;BME280;3848;42.016;23.098;2023-04-01T04:21:19;96135.13;;;12.30;100.00
7614;BME280;3848;42.016;23.098;2023-04-01T04:23:47;96125.09;;;12.24;100.00
7614;BME280;3848;42.016;23.098;2023-04-01T04:26:14;96130.84;;;12.31;100.00
7614;BME280;3848;42.016;23.098;2023-04-01T04:28:41;96125.66;;;12.34;100.00
7614;BME280;3848;42.016;23.098;2023-04-01T04:31:08;96114.63;;;12.33;100.00
7614;BME280;3848;42.016;23.098;2023-04-01T04:33:35;96122.97;;;12.38;100.00
7614;BME280;3848;42.016;23.098;2023-04-01T04:36:03;96123.69;;;12.42;100.00
7614;BME280;3848;42.016;23.098;2023-04-01T04:38:30;96123.69;;;12.42;100.00
7614;BME280;3848;42.016;23.098;2023-04-01T04:40:58;96099.88;;;12.43;100.00
7614;BME280;3848;42.016;23.098;2023-04-01T04:43:25;96108.22;;;12.48;100.00
7614;BME280;3848;42.016;23.098;2023-04-01T04:45:52;96110.75;;;12.48;100.00
7614;BME280;3848;42.016;23.098;2023-04-01T04:48:19;96106.38;;;12.53;100.00
7614;BME280;3848;42.016;23.098;2023-04-01T04:50:46;96103.94;;;12.48;100.00
7614;BME280;3848;42.016;23.098;2023-04-01T04:53:14;96093.75;;;12.48;100.00
7614;BME280;3848;42.016;23.098;2023-04-01T04:55:43;96096.28;;;12.50;100.00
7614;BME280;3848;42.016;23.098;2023-04-01T04:58:11;96094.50;;;12.52;100.00
7614;BME280;3848;42.016;23.098;2023-04-01T05:00:38;96081.94;;;12.46;100.00
7614;BME280;3848;42.016;23.098;2023-04-01T05:03:05;96096.84;;;12.58;100.00
7614;BME280;3848;42.016;23.098;2023-04-01T05:05:32;96088.06;;;12.67;100.00
7614;BME280;3848;42.016;23.098;2023-04-01T05:07:59;96076.16;;;12.67;100.00
7614;BME280;3848;42.016;23.098;2023-04-01T05:10:25;96066.94;;;12.63;100.00
7614;BME280;3848;42.016;23.098;2023-04-01T05:12:52;96081.94;;;12.72;100.00
7614;BME280;3848;42.016;23.098;2023-04-01T05:15:20;96072.66;;;12.70;100.00
7614;BME280;3848;42.016;23.098;2023-04-01T05:17:47;96074.53;;;12.65;100.00
7614;BME280;3848;42.016;23.098;2023-04-01T05:20:14;96063.78;;;12.57;100.00
7614;BME280;3848;42.016;23.098;2023-04-01T05:22:41;96062.00;;;12.59;100.00
7614;BME280;3848;42.016;23.098;2023-04-01T05:25:09;96062.22;;;12.52;100.00
7614;BME280;3848;42.016;23.098;2023-04-01T05:27:36;96058.84;;;12.52;100.00
7614;BME280;3848;42.016;23.098;2023-04-01T05:30:03;96058.91;;;12.49;100.00
7614;BME280;3848;42.016;23.098;2023-04-01T05:32:32;96048.66;;;12.52;100.00
7614;BME280;3848;42.016;23.098;2023-04-01T05:34:59;96039.34;;;12.51;100.00
7614;BME280;3848;42.016;23.098;2023-04-01T05:37:25;96052.69;;;12.58;100.00
7614;BME280;3848;42.016;23.098;2023-04-01T05:39:52;96056.97;;;12.57;100.00
7614;BME280;3848;42.016;23.098;2023-04-01T05:42:19;96038.34;;;12.55;100.00
7614;BME280;3848;42.016;23.098;2023-04-01T05:44:46;96048.75;;;12.74;100.00
7614;BME280;3848;42.016;23.098;2023-04-01T05:47:13;96041.38;;;12.90;100.00
7614;BME280;3848;42.016;23.098;2023-04-01T05:49:41;96008.66;;;13.02;100.00
7614;BME280;3848;42.016;23.098;2023-04-01T05:52:08;95999.47;;;13.22;100.00
7614;BME280;3848;42.016;23.098;2023-04-01T05:54:35;95991.28;;;13.37;100.00
7614;BME280;3848;42.016;23.098;2023-04-01T05:57:01;96004.25;;;13.53;100.00
7614;BME280;3848;42.016;23.098;2023-04-01T05:59:28;96001.31;;;13.63;100.00
7614;BME280;3848;42.016;23.098;2023-04-01T06:01:56;96008.41;;;13.79;100.00
7614;BME280;3848;42.016;23.098;2023-04-01T06:04:23;96011.34;;;13.90;100.00
7614;BME280;3848;42.016;23.098;2023-04-01T06:06:52;96024.34;;;14.06;100.00
7614;BME280;3848;42.016;23.098;2023-04-01T06:09:26;96012.81;;;14.17;100.00
7614;BME280;3848;42.016;23.098;2023-04-01T06:12:06;96001.19;;;14.30;100.00
7614;BME280;3848;42.016;23.098;2023-04-01T06:14:48;95992.09;;;14.45;100.00
7614;BME280;3848;42.016;23.098;2023-04-01T06:17:27;95987.25;;;14.59;99.84
7614;BME280;3848;42.016;23.098;2023-04-01T06:20:03;95995.28;;;14.71;97.62
7614;BME280;3848;42.016;23.098;2023-04-01T06:23:02;95994.19;;;14.76;96.69
7614;BME280;3848;42.016;23.098;2023-04-01T06:25:57;95997.19;;;14.86;97.78
7614;BME280;3848;42.016;23.098;2023-04-01T06:28:56;95997.16;;;15.06;92.78
7614;BME280;3848;42.016;23.098;2023-04-01T06:31:37;95962.09;;;15.08;90.72
7614;BME280;3848;42.016;23.098;2023-04-01T06:34:37;95976.75;;;15.23;94.40
7614;BME280;3848;42.016;23.098;2023-04-01T06:37:23;95967.53;;;15.38;89.51
7614;BME280;3848;42.016;23.098;2023-04-01T06:40:29;95957.19;;;15.41;87.79
7614;BME280;3848;42.016;23.098;2023-04-01T06:43:04;95951.22;;;15.41;89.06
7614;BME280;3848;42.016;23.098;2023-04-01T06:45:39;95952.38;;;15.52;88.03
7614;BME280;3848;42.016;23.098;2023-04-01T06:48:19;95949.47;;;15.60;87.32
7614;BME280;3848;42.016;23.098;2023-04-01T06:50:53;95935.06;;;15.57;87.76
7614;BME280;3848;42.016;23.098;2023-04-01T06:53:25;95929.06;;;15.59;89.69
7614;BME280;3848;42.016;23.098;2023-04-01T06:56:00;95921.31;;;15.60;90.23
7614;BME280;3848;42.016;23.098;2023-04-01T06:58:33;95928.28;;;15.75;75.08
7614;BME280;3848;42.016;23.098;2023-04-01T07:01:03;95917.69;;;15.83;81.26
7614;BME280;3848;42.016;23.098;2023-04-01T07:03:33;95929.28;;;15.90;82.91
7614;BME280;3848;42.016;23.098;2023-04-01T07:06:04;95856.06;;;15.50;71.00
7614;BME280;3848;42.016;23.098;2023-04-01T07:08:35;95928.47;;;16.07;67.31
7614;BME280;3848;42.016;23.098;2023-04-01T07:11:06;95938.03;;;16.21;68.23
7614;BME280;3848;42.016;23.098;2023-04-01T07:13:41;95939.47;;;16.26;71.60
7614;BME280;3848;42.016;23.098;2023-04-01T07:16:13;95930.41;;;16.19;77.57
7614;BME280;3848;42.016;23.098;2023-04-01T07:18:45;95947.44;;;16.03;79.80
7614;BME280;3848;42.016;23.098;2023-04-01T07:21:22;95951.84;;;15.82;81.61
7614;BME280;3848;42.016;23.098;2023-04-01T07:23:50;95950.72;;;15.70;83.90
7614;BME280;3848;42.016;23.098;2023-04-01T07:26:22;95947.41;;;15.68;85.78
7614;BME280;3848;42.016;23.098;2023-04-01T07:28:52;95938.41;;;15.60;87.77
7614;BME280;3848;42.016;23.098;2023-04-01T07:31:27;95948.31;;;15.67;85.11
7614;BME280;3848;42.016;23.098;2023-04-01T07:34:02;95952.69;;;15.65;84.17
7614;BME280;3848;42.016;23.098;2023-04-01T07:36:39;95941.47;;;15.68;84.34
7614;BME280;3848;42.016;23.098;2023-04-01T07:39:18;95947.41;;;15.68;81.04
7614;BME280;3848;42.016;23.098;2023-04-01T07:41:55;95944.94;;;15.67;82.12
7614;BME280;3848;42.016;23.098;2023-04-01T07:44:31;95943.50;;;15.78;82.50
7614;BME280;3848;42.016;23.098;2023-04-01T07:47:10;95943.97;;;15.87;81.97
7614;BME280;3848;42.016;23.098;2023-04-01T07:49:49;95925.41;;;15.81;80.57
7614;BME280;3848;42.016;23.098;2023-04-01T07:52:21;95918.13;;;15.74;80.91
7614;BME280;3848;42.016;23.098;2023-04-01T07:54:54;95923.31;;;15.72;81.92
7614;BME280;3848;42.016;23.098;2023-04-01T07:57:32;95915.09;;;15.66;84.50
7614;BME280;3848;42.016;23.098;2023-04-01T08:00:08;95921.97;;;15.65;85.69
7614;BME280;3848;42.016;23.098;2023-04-01T08:02:48;95929.78;;;15.62;87.22
7614;BME280;3848;42.016;23.098;2023-04-01T08:05:23;95923.88;;;15.60;88.73
7614;BME280;3848;42.016;23.098;2023-04-01T08:07:59;95924.78;;;15.59;90.31
7614;BME280;3848;42.016;23.098;2023-04-01T08:10:36;95922.72;;;15.67;88.75
7614;BME280;3848;42.016;23.098;2023-04-01T08:13:12;95915.41;;;15.77;90.08
7614;BME280;3848;42.016;23.098;2023-04-01T08:15:47;95907.56;;;15.80;88.87
7614;BME280;3848;42.016;23.098;2023-04-01T08:18:26;95905.72;;;15.83;89.08
7614;BME280;3848;42.016;23.098;2023-04-01T08:20:58;95904.19;;;15.97;80.16
7614;BME280;3848;42.016;23.098;2023-04-01T08:23:27;95896.06;;;15.89;81.11
7614;BME280;3848;42.016;23.098;2023-04-01T08:26:01;95902.19;;;16.03;81.15
7614;BME280;3848;42.016;23.098;2023-04-01T08:28:34;95904.19;;;16.14;74.22
7614;BME280;3848;42.016;23.098;2023-04-01T08:31:05;95892.19;;;16.14;72.49
7614;BME280;3848;42.016;23.098;2023-04-01T08:33:36;95891.97;;;16.19;73.37
7614;BME280;3848;42.016;23.098;2023-04-01T08:36:09;95846.47;;;15.90;72.74
7614;BME280;3848;42.016;23.098;2023-04-01T08:38:41;95881.28;;;16.11;72.91
7614;BME280;3848;42.016;23.098;2023-04-01T08:41:21;95871.56;;;16.00;73.43
7614;BME280;3848;42.016;23.098;2023-04-01T08:44:15;95873.59;;;15.94;75.00
7614;BME280;3848;42.016;23.098;2023-04-01T08:47:00;95852.44;;;15.90;75.67
7614;BME280;3848;42.016;23.098;2023-04-01T08:52:34;95830.44;;;16.03;78.82
7614;BME280;3848;42.016;23.098;2023-04-01T08:55:30;95835.28;;;16.25;78.66
7614;BME280;3848;42.016;23.098;2023-04-01T09:01:31;95820.81;;;16.24;77.28
7614;BME280;3848;42.016;23.098;2023-04-01T09:04:25;95821.34;;;16.13;78.10
7614;BME280;3848;42.016;23.098;2023-04-01T09:07:17;95799.34;;;16.09;77.83
7614;BME280;3848;42.016;23.098;2023-04-01T09:10:18;95802.63;;;16.29;78.34
7614;BME280;3848;42.016;23.098;2023-04-01T09:13:18;95774.75;;;16.38;77.20
7614;BME280;3848;42.016;23.098;2023-04-01T09:16:13;95778.13;;;16.88;72.51
7614;BME280;3848;42.016;23.098;2023-04-01T09:19:19;95780.53;;;17.36;68.91
7614;BME280;3848;42.016;23.098;2023-04-01T09:22:07;95770.50;;;17.92;67.78
7614;BME280;3848;42.016;23.098;2023-04-01T09:27:28;95762.25;;;19.12;59.91
7614;BME280;3848;42.016;23.098;2023-04-01T09:30:27;95743.84;;;19.58;58.86
7614;BME280;3848;42.016;23.098;2023-04-01T09:36:04;95754.84;;;20.36;55.54
7614;BME280;3848;42.016;23.098;2023-04-01T09:38:42;95745.00;;;20.04;54.80
7614;BME280;3848;42.016;23.098;2023-04-01T09:41:22;95745.84;;;19.40;55.73
7614;BME280;3848;42.016;23.098;2023-04-01T09:44:00;95686.63;;;18.73;56.96
7614;BME280;3848;42.016;23.098;2023-04-01T09:46:38;95750.25;;;18.71;58.02
7614;BME280;3848;42.016;23.098;2023-04-01T09:49:42;95749.88;;;18.49;58.83
7614;BME280;3848;42.016;23.098;2023-04-01T09:52:25;95729.25;;;18.22;59.37
7614;BME280;3848;42.016;23.098;2023-04-01T09:55:10;95723.41;;;18.06;59.88
7614;BME280;3848;42.016;23.098;2023-04-01T09:57:58;95725.22;;;18.04;60.38
7614;BME280;3848;42.016;23.098;2023-04-01T10:00:39;95707.63;;;17.97;60.34
7614;BME280;3848;42.016;23.098;2023-04-01T10:06:48;95711.38;;;18.20;60.20
7614;BME280;3848;42.016;23.098;2023-04-01T10:12:49;95718.06;;;18.37;57.52
7614;BME280;3848;42.016;23.098;2023-04-01T10:15:42;95713.72;;;18.38;57.59
7614;BME280;3848;42.016;23.098;2023-04-01T10:18:28;95696.84;;;18.19;58.29
7614;BME280;3848;42.016;23.098;2023-04-01T10:21:35;95719.63;;;18.25;59.25
7614;BME280;3848;42.016;23.098;2023-04-01T10:36:50;95704.31;;;17.95;61.58
7614;BME280;3848;42.016;23.098;2023-04-01T10:43:10;95695.78;;;17.81;64.73
7614;BME280;3848;42.016;23.098;2023-04-01T10:46:05;95689.34;;;17.74;62.82
7614;BME280;3848;42.016;23.098;2023-04-01T10:52:08;95672.88;;;17.62;64.02
7614;BME280;3848;42.016;23.098;2023-04-01T10:54:45;95679.22;;;17.56;64.68
7614;BME280;3848;42.016;23.098;2023-04-01T10:57:41;95681.50;;;17.61;65.37
7614;BME280;3848;42.016;23.098;2023-04-01T11:00:40;95674.34;;;17.37;66.80
7614;BME280;3848;42.016;23.098;2023-04-01T11:09:49;95670.41;;;17.32;69.34
7614;BME280;3848;42.016;23.098;2023-04-01T11:19:15;95654.25;;;17.44;69.33
7614;BME280;3848;42.016;23.098;2023-04-01T11:22:15;95636.84;;;17.35;69.28
7614;BME280;3848;42.016;23.098;2023-04-01T11:24:58;95632.44;;;17.37;68.85
7614;BME280;3848;42.016;23.098;2023-04-01T11:27:57;95631.63;;;17.51;67.50
7614;BME280;3848;42.016;23.098;2023-04-01T11:30:41;95630.97;;;17.61;65.32
7614;BME280;3848;42.016;23.098;2023-04-01T11:33:15;95631.44;;;17.68;65.73
7614;BME280;3848;42.016;23.098;2023-04-01T11:36:14;95621.31;;;17.65;63.63
7614;BME280;3848;42.016;23.098;2023-04-01T11:39:00;95584.28;;;17.55;64.24
7614;BME280;3848;42.016;23.098;2023-04-01T11:41:35;95587.84;;;17.81;64.29
7614;BME280;3848;42.016;23.098;2023-04-01T11:44:16;95599.50;;;17.86;62.52
7614;BME280;3848;42.016;23.098;2023-04-01T11:46:52;95593.59;;;17.98;62.80
7614;BME280;3848;42.016;23.098;2023-04-01T11:49:40;95585.41;;;18.06;61.03
7614;BME280;3848;42.016;23.098;2023-04-01T11:52:23;95573.28;;;18.08;59.41
7614;BME280;3848;42.016;23.098;2023-04-01T11:55:19;95576.41;;;18.13;58.58
7614;BME280;3848;42.016;23.098;2023-04-01T11:58:02;95598.25;;;18.06;59.06
7614;BME280;3848;42.016;23.098;2023-04-01T12:03:46;95597.00;;;17.99;58.59
7614;BME280;3848;42.016;23.098;2023-04-01T12:06:23;95612.09;;;17.91;58.75
7614;BME280;3848;42.016;23.098;2023-04-01T12:08:59;95615.19;;;17.96;59.61
7614;BME280;3848;42.016;23.098;2023-04-01T12:11:33;95590.97;;;17.57;60.43
7614;BME280;3848;42.016;23.098;2023-04-01T12:14:09;95801.06;;;17.66;66.47
7614;BME280;3848;42.016;23.098;2023-04-01T12:16:43;95833.91;;;17.00;100.00
7614;BME280;3848;42.016;23.098;2023-04-01T12:19:20;95798.28;;;16.13;100.00
7614;BME280;3848;42.016;23.098;2023-04-01T12:22:03;95813.91;;;15.57;100.00
7614;BME280;3848;42.016;23.098;2023-04-01T12:24:47;95793.53;;;15.19;100.00
7614;BME280;3848;42.016;23.098;2023-04-01T12:27:26;95811.75;;;15.13;100.00
7614;BME280;3848;42.016;23.098;2023-04-01T12:30:33;95801.69;;;14.91;100.00
7614;BME280;3848;42.016;23.098;2023-04-01T12:33:14;95799.34;;;14.87;100.00
7614;BME280;3848;42.016;23.098;2023-04-01T12:35:56;95803.88;;;14.82;100.00
7614;BME280;3848;42.016;23.098;2023-04-01T12:38:35;95792.31;;;14.73;100.00
7614;BME280;3848;42.016;23.098;2023-04-01T12:41:14;95793.50;;;14.66;100.00
7614;BME280;3848;42.016;23.098;2023-04-01T12:44:13;95801.25;;;14.64;100.00
7614;BME280;3848;42.016;23.098;2023-04-01T12:49:55;95783.75;;;14.55;100.00
7614;BME280;3848;42.016;23.098;2023-04-01T12:52:37;95804.78;;;14.62;100.00
7614;BME280;3848;42.016;23.098;2023-04-01T12:58:30;95814.56;;;14.52;100.00
7614;BME280;3848;42.016;23.098;2023-04-01T13:01:28;95826.28;;;14.38;100.00
7614;BME280;3848;42.016;23.098;2023-04-01T13:07:19;95815.25;;;14.37;100.00
7614;BME280;3848;42.016;23.098;2023-04-01T13:09:53;95789.97;;;14.50;100.00
7614;BME280;3848;42.016;23.098;2023-04-01T13:12:37;95763.59;;;14.49;100.00
7614;BME280;3848;42.016;23.098;2023-04-01T13:15:19;95771.84;;;14.73;100.00
7614;BME280;3848;42.016;23.098;2023-04-01T13:17:53;95766.41;;;14.81;100.00
7614;BME280;3848;42.016;23.098;2023-04-01T13:20:32;95768.38;;;14.93;100.00
7614;BME280;3848;42.016;23.098;2023-04-01T13:23:10;95704.19;;;14.63;100.00
7614;BME280;3848;42.016;23.098;2023-04-01T13:25:46;95758.94;;;15.12;100.00
7614;BME280;3848;42.016;23.098;2023-04-01T13:28:20;95685.09;;;14.70;100.00
7614;BME280;3848;42.016;23.098;2023-04-01T13:30:57;95752.91;;;15.13;100.00
7614;BME280;3848;42.016;23.098;2023-04-01T13:33:34;95744.94;;;15.19;100.00
7614;BME280;3848;42.016;23.098;2023-04-01T13:36:14;95744.41;;;15.30;100.00
7614;BME280;3848;42.016;23.098;2023-04-01T13:41:47;95729.22;;;15.44;100.00
7614;BME280;3848;42.016;23.098;2023-04-01T13:44:20;95718.16;;;15.44;100.00
7614;BME280;3848;42.016;23.098;2023-04-01T13:47:06;95724.19;;;15.43;100.00
7614;BME280;3848;42.016;23.098;2023-04-01T13:52:53;95720.09;;;15.73;100.00
7614;BME280;3848;42.016;23.098;2023-04-01T13:55:39;95710.25;;;15.81;100.00
7614;BME280;3848;42.016;23.098;2023-04-01T13:58:24;95714.19;;;15.89;100.00
7614;BME280;3848;42.016;23.098;2023-04-01T14:01:00;95710.13;;;16.00;100.00
7614;BME280;3848;42.016;23.098;2023-04-01T14:03:40;95709.84;;;16.06;100.00
7614;BME280;3848;42.016;23.098;2023-04-01T14:06:16;95696.34;;;16.03;100.00
7614;BME280;3848;42.016;23.098;2023-04-01T14:08:59;95709.66;;;16.09;100.00
7614;BME280;3848;42.016;23.098;2023-04-01T14:11:36;95721.00;;;16.05;100.00
7614;BME280;3848;42.016;23.098;2023-04-01T14:14:14;95744.59;;;15.95;100.00
7614;BME280;3848;42.016;23.098;2023-04-01T14:17:01;95769.88;;;15.85;100.00
7614;BME280;3848;42.016;23.098;2023-04-01T14:19:49;95756.09;;;15.70;100.00
7614;BME280;3848;42.016;23.098;2023-04-01T14:22:26;95746.44;;;15.58;100.00
7614;BME280;3848;42.016;23.098;2023-04-01T14:25:17;95735.25;;;15.43;100.00
7614;BME280;3848;42.016;23.098;2023-04-01T14:27:55;95746.66;;;15.36;100.00
7614;BME280;3848;42.016;23.098;2023-04-01T14:30:40;95742.84;;;15.28;100.00
7614;BME280;3848;42.016;23.098;2023-04-01T14:33:23;95741.50;;;15.20;100.00
7614;BME280;3848;42.016;23.098;2023-04-01T14:36:08;95747.94;;;15.10;100.00
7614;BME280;3848;42.016;23.098;2023-04-01T14:38:47;95770.38;;;15.05;100.00
7614;BME280;3848;42.016;23.098;2023-04-01T14:41:27;95787.03;;;14.95;100.00
7614;BME280;3848;42.016;23.098;2023-04-01T14:44:10;95788.22;;;14.88;100.00
7614;BME280;3848;42.016;23.098;2023-04-01T14:47:11;95784.63;;;14.92;100.00
7614;BME280;3848;42.016;23.098;2023-04-01T14:49:47;95768.56;;;15.07;100.00
7614;BME280;3848;42.016;23.098;2023-04-01T14:52:23;95775.63;;;15.19;100.00
7614;BME280;3848;42.016;23.098;2023-04-01T14:54:51;95766.16;;;15.39;100.00
7614;BME280;3848;42.016;23.098;2023-04-01T14:57:23;95760.13;;;15.57;100.00
7614;BME280;3848;42.016;23.098;2023-04-01T14:59:53;95757.84;;;15.70;100.00